sensor_id;sensor_type;location;lat;lon;timestamp;temperature;humidity
19805;DHT22;10062;51.052;13.756;2022-07-06T00:00:35;19.40;1.00
19805;DHT22;10062;51.052;13.756;2022-07-06T00:03:07;19.40;1.00
19805;DHT22;10062;51.052;13.756;2022-07-06T00:05:38;19.40;1.00
19805;DHT22;10062;51.052;13.756;2022-07-06T00:08:10;19.50;1.00
19805;DHT22;10062;51.052;13.756;2022-07-06T00:10:43;19.50;1.00
19805;DHT22;10062;51.052;13.756;2022-07-06T00:13:15;19.40;1.00
19805;DHT22;10062;51.052;13.756;2022-07-06T00:15:46;19.40;1.00
19805;DHT22;10062;51.052;13.756;2022-07-06T00:18:18;19.40;1.00
19805;DHT22;10062;51.052;13.756;2022-07-06T00:20:50;19.20;1.00
19805;DHT22;10062;51.052;13.756;2022-07-06T00:23:22;19.20;1.00
19805;DHT22;10062;51.052;13.756;2022-07-06T00:25:55;19.10;1.00
19805;DHT22;10062;51.052;13.756;2022-07-06T00:28:27;19.00;1.00
19805;DHT22;10062;51.052;13.756;2022-07-06T00:30:59;19.10;1.00
19805;DHT22;10062;51.052;13.756;2022-07-06T00:33:30;19.20;1.00
19805;DHT22;10062;51.052;13.756;2022-07-06T00:36:02;19.00;1.00
19805;DHT22;10062;51.052;13.756;2022-07-06T00:38:34;18.80;1.00
19805;DHT22;10062;51.052;13.756;2022-07-06T00:41:09;18.20;1.00
19805;DHT22;10062;51.052;13.756;2022-07-06T00:43:48;18.30;1.00
19805;DHT22;10062;51.052;13.756;2022-07-06T00:46:22;18.50;1.00
19805;DHT22;10062;51.052;13.756;2022-07-06T00:48:56;18.70;1.00
19805;DHT22;10062;51.052;13.756;2022-07-06T00:51:29;18.60;1.00
19805;DHT22;10062;51.052;13.756;2022-07-06T00:54:03;18.50;1.00
19805;DHT22;10062;51.052;13.756;2022-07-06T00:56:37;18.50;1.00
19805;DHT22;10062;51.052;13.756;2022-07-06T00:59:08;18.60;1.00
19805;DHT22;10062;51.052;13.756;2022-07-06T01:01:40;18.40;1.00
19805;DHT22;10062;51.052;13.756;2022-07-06T01:04:12;18.20;1.00
19805;DHT22;10062;51.052;13.756;2022-07-06T01:06:45;18.40;1.00
19805;DHT22;10062;51.052;13.756;2022-07-06T01:09:17;18.40;1.00
19805;DHT22;10062;51.052;13.756;2022-07-06T01:11:52;18.10;1.00
19805;DHT22;10062;51.052;13.756;2022-07-06T01:14:24;17.40;1.00
19805;DHT22;10062;51.052;13.756;2022-07-06T01:16:56;17.00;34.60
19805;DHT22;10062;51.052;13.756;2022-07-06T01:19:28;16.90;44.50
19805;DHT22;10062;51.052;13.756;2022-07-06T01:22:01;17.10;61.80
19805;DHT22;10062;51.052;13.756;2022-07-06T01:24:35;17.00;32.40
19805;DHT22;10062;51.052;13.756;2022-07-06T01:27:07;17.10;41.80
19805;DHT22;10062;51.052;13.756;2022-07-06T01:29:39;17.00;3.20
19805;DHT22;10062;51.052;13.756;2022-07-06T01:32:11;16.90;25.20
19805;DHT22;10062;51.052;13.756;2022-07-06T01:34:42;17.10;20.70
19805;DHT22;10062;51.052;13.756;2022-07-06T01:37:15;16.70;43.30
19805;DHT22;10062;51.052;13.756;2022-07-06T01:39:47;16.90;51.00
19805;DHT22;10062;51.052;13.756;2022-07-06T01:42:19;17.20;38.30
19805;DHT22;10062;51.052;13.756;2022-07-06T01:44:50;17.20;32.30
19805;DHT22;10062;51.052;13.756;2022-07-06T01:47:22;17.40;6.10
19805;DHT22;10062;51.052;13.756;2022-07-06T01:49:58;17.50;2.70
19805;DHT22;10062;51.052;13.756;2022-07-06T01:52:32;17.50;8.10
19805;DHT22;10062;51.052;13.756;2022-07-06T01:55:06;17.20;1.00
19805;DHT22;10062;51.052;13.756;2022-07-06T01:57:40;16.70;25.00
19805;DHT22;10062;51.052;13.756;2022-07-06T02:00:14;16.40;52.60
19805;DHT22;10062;51.052;13.756;2022-07-06T02:02:51;16.30;77.90
19805;DHT22;10062;51.052;13.756;2022-07-06T02:05:23;16.50;80.70
19805;DHT22;10062;51.052;13.756;2022-07-06T02:07:56;16.50;78.50
19805;DHT22;10062;51.052;13.756;2022-07-06T02:10:28;16.60;66.10
19805;DHT22;10062;51.052;13.756;2022-07-06T02:12:59;16.80;49.80
19805;DHT22;10062;51.052;13.756;2022-07-06T02:15:31;16.60;38.70
19805;DHT22;10062;51.052;13.756;2022-07-06T02:18:03;16.70;41.80
19805;DHT22;10062;51.052;13.756;2022-07-06T02:20:34;16.80;35.60
19805;DHT22;10062;51.052;13.756;2022-07-06T02:23:07;16.90;15.70
19805;DHT22;10062;51.052;13.756;2022-07-06T02:25:40;16.90;15.30
19805;DHT22;10062;51.052;13.756;2022-07-06T02:28:12;16.90;9.00
19805;DHT22;10062;51.052;13.756;2022-07-06T02:30:45;16.90;13.80
19805;DHT22;10062;51.052;13.756;2022-07-06T02:33:17;16.90;16.10
19805;DHT22;10062;51.052;13.756;2022-07-06T02:35:49;17.00;21.10
19805;DHT22;10062;51.052;13.756;2022-07-06T02:38:22;17.10;21.20
19805;DHT22;10062;51.052;13.756;2022-07-06T02:40:55;16.80;14.90
19805;DHT22;10062;51.052;13.756;2022-07-06T02:43:26;16.90;21.50
19805;DHT22;10062;51.052;13.756;2022-07-06T02:45:58;16.60;28.80
19805;DHT22;10062;51.052;13.756;2022-07-06T02:48:31;16.70;30.50
19805;DHT22;10062;51.052;13.756;2022-07-06T02:51:03;16.80;48.90
19805;DHT22;10062;51.052;13.756;2022-07-06T02:53:36;17.00;22.60
19805;DHT22;10062;51.052;13.756;2022-07-06T02:56:07;16.90;16.40
19805;DHT22;10062;51.052;13.756;2022-07-06T02:58:40;16.80;4.70
19805;DHT22;10062;51.052;13.756;2022-07-06T03:01:12;16.70;23.50
19805;DHT22;10062;51.052;13.756;2022-07-06T03:03:44;16.70;38.20
19805;DHT22;10062;51.052;13.756;2022-07-06T03:06:16;16.70;29.30
19805;DHT22;10062;51.052;13.756;2022-07-06T03:08:49;16.70;43.80
19805;DHT22;10062;51.052;13.756;2022-07-06T03:11:21;16.60;73.40
19805;DHT22;10062;51.052;13.756;2022-07-06T03:13:52;16.70;61.10
19805;DHT22;10062;51.052;13.756;2022-07-06T03:16:24;16.70;82.90
19805;DHT22;10062;51.052;13.756;2022-07-06T03:18:56;16.70;72.70
19805;DHT22;10062;51.052;13.756;2022-07-06T03:21:28;16.90;50.20
19805;DHT22;10062;51.052;13.756;2022-07-06T03:24:02;17.00;47.80
19805;DHT22;10062;51.052;13.756;2022-07-06T03:26:34;17.00;43.40
19805;DHT22;10062;51.052;13.756;2022-07-06T03:29:05;17.00;30.20
19805;DHT22;10062;51.052;13.756;2022-07-06T03:31:37;16.90;42.30
19805;DHT22;10062;51.052;13.756;2022-07-06T03:34:09;17.00;34.60
19805;DHT22;10062;51.052;13.756;2022-07-06T03:36:42;17.00;39.20
19805;DHT22;10062;51.052;13.756;2022-07-06T03:39:15;17.10;37.90
19805;DHT22;10062;51.052;13.756;2022-07-06T03:41:47;17.10;33.50
19805;DHT22;10062;51.052;13.756;2022-07-06T03:44:18;17.20;30.00
19805;DHT22;10062;51.052;13.756;2022-07-06T03:46:50;17.20;21.70
19805;DHT22;10062;51.052;13.756;2022-07-06T03:49:26;17.30;26.00
19805;DHT22;10062;51.052;13.756;2022-07-06T03:51:59;17.30;25.70
19805;DHT22;10062;51.052;13.756;2022-07-06T03:54:34;17.30;23.20
19805;DHT22;10062;51.052;13.756;2022-07-06T03:57:09;17.30;21.70
19805;DHT22;10062;51.052;13.756;2022-07-06T03:59:42;17.30;23.00
19805;DHT22;10062;51.052;13.756;2022-07-06T04:02:14;17.20;25.30
19805;DHT22;10062;51.052;13.756;2022-07-06T04:04:46;17.30;28.20
19805;DHT22;10062;51.052;13.756;2022-07-06T04:07:19;17.20;24.00
19805;DHT22;10062;51.052;13.756;2022-07-06T04:09:53;17.20;74.60
19805;DHT22;10062;51.052;13.756;2022-07-06T04:12:25;17.10;91.20
19805;DHT22;10062;51.052;13.756;2022-07-06T04:14:57;17.20;67.20
19805;DHT22;10062;51.052;13.756;2022-07-06T04:17:29;17.30;56.40
19805;DHT22;10062;51.052;13.756;2022-07-06T04:20:19;17.40;53.30
19805;DHT22;10062;51.052;13.756;2022-07-06T04:22:51;17.50;37.00
19805;DHT22;10062;51.052;13.756;2022-07-06T04:25:27;17.50;50.20
19805;DHT22;10062;51.052;13.756;2022-07-06T04:28:02;17.50;31.80
19805;DHT22;10062;51.052;13.756;2022-07-06T04:30:36;17.50;16.40
19805;DHT22;10062;51.052;13.756;2022-07-06T04:33:11;17.40;18.80
19805;DHT22;10062;51.052;13.756;2022-07-06T04:35:43;17.30;1.00
19805;DHT22;10062;51.052;13.756;2022-07-06T04:38:15;17.30;14.50
19805;DHT22;10062;51.052;13.756;2022-07-06T04:40:49;17.30;12.50
19805;DHT22;10062;51.052;13.756;2022-07-06T04:43:22;17.40;9.20
19805;DHT22;10062;51.052;13.756;2022-07-06T04:45:54;17.50;1.00
19805;DHT22;10062;51.052;13.756;2022-07-06T04:48:26;17.60;1.00
19805;DHT22;10062;51.052;13.756;2022-07-06T04:50:58;17.50;1.00
19805;DHT22;10062;51.052;13.756;2022-07-06T04:53:32;17.40;1.00
19805;DHT22;10062;51.052;13.756;2022-07-06T04:56:06;17.40;1.00
19805;DHT22;10062;51.052;13.756;2022-07-06T04:58:41;17.30;1.00
19805;DHT22;10062;51.052;13.756;2022-07-06T05:01:17;14.80;1.00
19805;DHT22;10062;51.052;13.756;2022-07-06T05:03:50;17.20;1.00
19805;DHT22;10062;51.052;13.756;2022-07-06T05:06:25;17.20;1.00
19805;DHT22;10062;51.052;13.756;2022-07-06T05:08:56;17.20;1.00
19805;DHT22;10062;51.052;13.756;2022-07-06T05:11:31;17.30;1.00
19805;DHT22;10062;51.052;13.756;2022-07-06T05:14:03;17.20;1.00
19805;DHT22;10062;51.052;13.756;2022-07-06T05:16:35;17.20;1.00
19805;DHT22;10062;51.052;13.756;2022-07-06T05:19:07;17.30;1.00
19805;DHT22;10062;51.052;13.756;2022-07-06T05:21:39;17.20;1.00
19805;DHT22;10062;51.052;13.756;2022-07-06T05:24:12;17.10;1.00
19805;DHT22;10062;51.052;13.756;2022-07-06T05:26:47;17.10;1.00
19805;DHT22;10062;51.052;13.756;2022-07-06T05:29:20;17.20;1.00
19805;DHT22;10062;51.052;13.756;2022-07-06T05:31:52;17.20;1.00
19805;DHT22;10062;51.052;13.756;2022-07-06T05:34:24;17.10;1.00
19805;DHT22;10062;51.052;13.756;2022-07-06T05:36:55;17.20;1.00
19805;DHT22;10062;51.052;13.756;2022-07-06T05:39:27;17.20;1.00
19805;DHT22;10062;51.052;13.756;2022-07-06T05:42:00;17.20;1.00
19805;DHT22;10062;51.052;13.756;2022-07-06T05:44:32;17.10;1.00
19805;DHT22;10062;51.052;13.756;2022-07-06T05:47:04;17.20;1.00
19805;DHT22;10062;51.052;13.756;2022-07-06T05:49:53;17.20;1.00
19805;DHT22;10062;51.052;13.756;2022-07-06T05:52:55;17.30;1.00
19805;DHT22;10062;51.052;13.756;2022-07-06T05:55:28;17.50;1.00
19805;DHT22;10062;51.052;13.756;2022-07-06T05:58:03;17.60;1.00
19805;DHT22;10062;51.052;13.756;2022-07-06T06:00:37;17.70;1.00
19805;DHT22;10062;51.052;13.756;2022-07-06T06:03:15;17.90;1.00
19805;DHT22;10062;51.052;13.756;2022-07-06T06:05:47;18.00;1.00
19805;DHT22;10062;51.052;13.756;2022-07-06T06:08:21;18.00;1.00
19805;DHT22;10062;51.052;13.756;2022-07-06T06:10:55;17.90;1.00
19805;DHT22;10062;51.052;13.756;2022-07-06T06:13:29;18.00;1.00
19805;DHT22;10062;51.052;13.756;2022-07-06T06:16:01;18.00;1.00
19805;DHT22;10062;51.052;13.756;2022-07-06T06:18:33;18.10;1.00
19805;DHT22;10062;51.052;13.756;2022-07-06T06:21:05;18.10;1.00
19805;DHT22;10062;51.052;13.756;2022-07-06T06:23:36;18.10;1.00
19805;DHT22;10062;51.052;13.756;2022-07-06T06:26:08;18.10;1.00
19805;DHT22;10062;51.052;13.756;2022-07-06T06:28:41;17.90;1.00
19805;DHT22;10062;51.052;13.756;2022-07-06T06:31:13;18.10;1.00
19805;DHT22;10062;51.052;13.756;2022-07-06T06:33:45;18.10;1.00
19805;DHT22;10062;51.052;13.756;2022-07-06T06:36:17;18.10;1.00
19805;DHT22;10062;51.052;13.756;2022-07-06T06:38:48;18.30;1.00
19805;DHT22;10062;51.052;13.756;2022-07-06T06:41:20;18.30;1.00
19805;DHT22;10062;51.052;13.756;2022-07-06T06:43:53;18.40;1.00
19805;DHT22;10062;51.052;13.756;2022-07-06T06:46:28;18.40;1.00
19805;DHT22;10062;51.052;13.756;2022-07-06T06:49:00;18.40;1.00
19805;DHT22;10062;51.052;13.756;2022-07-06T06:51:32;18.40;99.90
19805;DHT22;10062;51.052;13.756;2022-07-06T06:54:03;18.60;99.90
19805;DHT22;10062;51.052;13.756;2022-07-06T06:56:35;18.80;98.40
19805;DHT22;10062;51.052;13.756;2022-07-06T06:59:08;18.80;1.00
19805;DHT22;10062;51.052;13.756;2022-07-06T07:01:40;18.70;99.90
19805;DHT22;10062;51.052;13.756;2022-07-06T07:04:12;18.70;1.00
19805;DHT22;10062;51.052;13.756;2022-07-06T07:06:43;19.00;99.90
19805;DHT22;10062;51.052;13.756;2022-07-06T07:09:15;19.20;1.00
19805;DHT22;10062;51.052;13.756;2022-07-06T07:11:47;19.40;1.00
19805;DHT22;10062;51.052;13.756;2022-07-06T07:14:20;19.50;1.00
19805;DHT22;10062;51.052;13.756;2022-07-06T07:16:51;19.70;1.00
19805;DHT22;10062;51.052;13.756;2022-07-06T07:19:23;20.00;99.90
19805;DHT22;10062;51.052;13.756;2022-07-06T07:21:55;20.30;1.00
19805;DHT22;10062;51.052;13.756;2022-07-06T07:24:26;20.60;1.00
19805;DHT22;10062;51.052;13.756;2022-07-06T07:26:58;20.70;99.90
19805;DHT22;10062;51.052;13.756;2022-07-06T07:29:31;20.50;1.00
19805;DHT22;10062;51.052;13.756;2022-07-06T07:32:03;20.80;1.00
19805;DHT22;10062;51.052;13.756;2022-07-06T07:34:35;20.90;1.00
19805;DHT22;10062;51.052;13.756;2022-07-06T07:37:07;20.90;1.00
19805;DHT22;10062;51.052;13.756;2022-07-06T07:39:38;20.80;99.90
19805;DHT22;10062;51.052;13.756;2022-07-06T07:42:10;20.80;99.90
19805;DHT22;10062;51.052;13.756;2022-07-06T07:44:43;20.80;1.00
19805;DHT22;10062;51.052;13.756;2022-07-06T07:47:15;21.00;1.00
19805;DHT22;10062;51.052;13.756;2022-07-06T07:49:46;21.20;99.90
19805;DHT22;10062;51.052;13.756;2022-07-06T07:52:18;21.20;1.00
19805;DHT22;10062;51.052;13.756;2022-07-06T07:54:49;21.20;1.00
19805;DHT22;10062;51.052;13.756;2022-07-06T07:57:21;21.20;1.00
19805;DHT22;10062;51.052;13.756;2022-07-06T07:59:54;21.10;99.90
19805;DHT22;10062;51.052;13.756;2022-07-06T08:02:26;21.00;1.00
19805;DHT22;10062;51.052;13.756;2022-07-06T08:04:57;20.80;99.90
19805;DHT22;10062;51.052;13.756;2022-07-06T08:07:29;20.70;99.90
19805;DHT22;10062;51.052;13.756;2022-07-06T08:10:01;20.80;99.90
19805;DHT22;10062;51.052;13.756;2022-07-06T08:12:33;20.80;99.90
19805;DHT22;10062;51.052;13.756;2022-07-06T08:15:07;20.50;99.90
19805;DHT22;10062;51.052;13.756;2022-07-06T08:17:39;20.50;99.90
19805;DHT22;10062;51.052;13.756;2022-07-06T08:20:11;20.60;99.90
19805;DHT22;10062;51.052;13.756;2022-07-06T08:22:43;20.40;1.00
19805;DHT22;10062;51.052;13.756;2022-07-06T08:25:15;20.10;1.00
19805;DHT22;10062;51.052;13.756;2022-07-06T08:27:47;20.00;1.00
19805;DHT22;10062;51.052;13.756;2022-07-06T08:30:21;20.00;1.00
19805;DHT22;10062;51.052;13.756;2022-07-06T08:32:53;20.10;1.00
19805;DHT22;10062;51.052;13.756;2022-07-06T08:35:25;20.00;1.00
19805;DHT22;10062;51.052;13.756;2022-07-06T08:37:56;20.00;1.00
19805;DHT22;10062;51.052;13.756;2022-07-06T08:40:32;20.20;1.00
19805;DHT22;10062;51.052;13.756;2022-07-06T08:43:04;20.60;1.00
19805;DHT22;10062;51.052;13.756;2022-07-06T08:45:37;20.80;1.00
19805;DHT22;10062;51.052;13.756;2022-07-06T08:48:11;21.10;1.00
19805;DHT22;10062;51.052;13.756;2022-07-06T08:50:44;21.70;1.00
19805;DHT22;10062;51.052;13.756;2022-07-06T08:53:17;22.20;99.90
19805;DHT22;10062;51.052;13.756;2022-07-06T08:55:49;22.80;99.90
19805;DHT22;10062;51.052;13.756;2022-07-06T08:58:23;23.20;99.90
19805;DHT22;10062;51.052;13.756;2022-07-06T09:00:57;23.10;37.00
19805;DHT22;10062;51.052;13.756;2022-07-06T09:03:29;22.80;99.90
19805;DHT22;10062;51.052;13.756;2022-07-06T09:06:02;22.90;62.60
19805;DHT22;10062;51.052;13.756;2022-07-06T09:08:34;22.80;1.00
19805;DHT22;10062;51.052;13.756;2022-07-06T09:11:07;22.40;1.00
19805;DHT22;10062;51.052;13.756;2022-07-06T09:13:38;22.80;1.00
19805;DHT22;10062;51.052;13.756;2022-07-06T09:16:12;23.00;1.00
19805;DHT22;10062;51.052;13.756;2022-07-06T09:18:45;22.50;1.00
19805;DHT22;10062;51.052;13.756;2022-07-06T09:21:22;23.00;1.00
19805;DHT22;10062;51.052;13.756;2022-07-06T09:23:54;23.70;1.00
19805;DHT22;10062;51.052;13.756;2022-07-06T09:26:27;24.00;1.00
19805;DHT22;10062;51.052;13.756;2022-07-06T09:28:58;23.80;1.00
19805;DHT22;10062;51.052;13.756;2022-07-06T09:31:32;23.30;1.00
19805;DHT22;10062;51.052;13.756;2022-07-06T09:34:05;23.00;1.00
19805;DHT22;10062;51.052;13.756;2022-07-06T09:36:38;23.60;1.00
19805;DHT22;10062;51.052;13.756;2022-07-06T09:39:21;24.20;1.00
19805;DHT22;10062;51.052;13.756;2022-07-06T09:41:54;24.50;1.00
19805;DHT22;10062;51.052;13.756;2022-07-06T09:44:27;24.10;1.00
19805;DHT22;10062;51.052;13.756;2022-07-06T09:47:03;23.90;1.00
19805;DHT22;10062;51.052;13.756;2022-07-06T09:49:36;24.30;1.00
19805;DHT22;10062;51.052;13.756;2022-07-06T09:52:09;24.90;1.00
19805;DHT22;10062;51.052;13.756;2022-07-06T09:54:41;25.10;1.00
19805;DHT22;10062;51.052;13.756;2022-07-06T09:57:13;25.30;1.00
19805;DHT22;10062;51.052;13.756;2022-07-06T09:59:50;25.30;1.00
19805;DHT22;10062;51.052;13.756;2022-07-06T10:02:24;25.70;1.00
19805;DHT22;10062;51.052;13.756;2022-07-06T10:04:57;26.00;1.00
19805;DHT22;10062;51.052;13.756;2022-07-06T10:07:29;26.60;1.00
19805;DHT22;10062;51.052;13.756;2022-07-06T10:10:01;27.20;1.00
19805;DHT22;10062;51.052;13.756;2022-07-06T10:12:34;27.00;1.00
19805;DHT22;10062;51.052;13.756;2022-07-06T10:15:07;27.50;1.00
19805;DHT22;10062;51.052;13.756;2022-07-06T10:17:40;27.10;1.00
19805;DHT22;10062;51.052;13.756;2022-07-06T10:20:12;27.50;1.00
19805;DHT22;10062;51.052;13.756;2022-07-06T10:22:45;28.00;1.00
19805;DHT22;10062;51.052;13.756;2022-07-06T10:25:18;27.40;1.00
19805;DHT22;10062;51.052;13.756;2022-07-06T10:27:52;28.20;1.00
19805;DHT22;10062;51.052;13.756;2022-07-06T10:30:24;28.40;1.00
19805;DHT22;10062;51.052;13.756;2022-07-06T10:32:58;28.30;1.00
19805;DHT22;10062;51.052;13.756;2022-07-06T10:35:31;28.60;1.00
19805;DHT22;10062;51.052;13.756;2022-07-06T10:38:04;28.00;1.00
19805;DHT22;10062;51.052;13.756;2022-07-06T10:40:37;27.70;1.00
19805;DHT22;10062;51.052;13.756;2022-07-06T10:43:34;27.20;1.00
19805;DHT22;10062;51.052;13.756;2022-07-06T10:46:07;26.40;1.00
19805;DHT22;10062;51.052;13.756;2022-07-06T10:48:42;26.80;1.00
19805;DHT22;10062;51.052;13.756;2022-07-06T10:51:23;27.40;1.00
19805;DHT22;10062;51.052;13.756;2022-07-06T10:53:56;28.40;1.00
19805;DHT22;10062;51.052;13.756;2022-07-06T10:56:32;28.80;1.00
19805;DHT22;10062;51.052;13.756;2022-07-06T10:59:09;28.90;1.00
19805;DHT22;10062;51.052;13.756;2022-07-06T11:02:11;28.20;1.00
19805;DHT22;10062;51.052;13.756;2022-07-06T11:04:46;26.80;1.00
19805;DHT22;10062;51.052;13.756;2022-07-06T11:07:19;26.00;1.00
19805;DHT22;10062;51.052;13.756;2022-07-06T11:09:54;25.90;1.00
19805;DHT22;10062;51.052;13.756;2022-07-06T11:12:26;25.90;1.00
19805;DHT22;10062;51.052;13.756;2022-07-06T11:14:57;25.80;1.00
19805;DHT22;10062;51.052;13.756;2022-07-06T11:17:32;25.60;1.00
19805;DHT22;10062;51.052;13.756;2022-07-06T11:20:11;25.70;1.00
19805;DHT22;10062;51.052;13.756;2022-07-06T11:22:43;25.70;1.00
19805;DHT22;10062;51.052;13.756;2022-07-06T11:25:15;26.00;1.00
19805;DHT22;10062;51.052;13.756;2022-07-06T11:27:47;25.80;1.00
19805;DHT22;10062;51.052;13.756;2022-07-06T11:30:20;26.10;1.00
19805;DHT22;10062;51.052;13.756;2022-07-06T11:32:52;26.60;1.00
19805;DHT22;10062;51.052;13.756;2022-07-06T11:35:25;26.90;1.00
19805;DHT22;10062;51.052;13.756;2022-07-06T11:37:57;27.40;1.00
19805;DHT22;10062;51.052;13.756;2022-07-06T11:40:28;27.90;1.00
19805;DHT22;10062;51.052;13.756;2022-07-06T11:43:00;28.10;1.00
19805;DHT22;10062;51.052;13.756;2022-07-06T11:45:32;28.30;1.00
19805;DHT22;10062;51.052;13.756;2022-07-06T11:48:11;27.60;1.00
19805;DHT22;10062;51.052;13.756;2022-07-06T11:50:57;27.20;1.00
19805;DHT22;10062;51.052;13.756;2022-07-06T11:53:29;26.70;1.00
19805;DHT22;10062;51.052;13.756;2022-07-06T11:56:02;26.30;1.00
19805;DHT22;10062;51.052;13.756;2022-07-06T11:58:35;26.00;1.00
19805;DHT22;10062;51.052;13.756;2022-07-06T12:01:08;25.70;1.00
19805;DHT22;10062;51.052;13.756;2022-07-06T12:03:41;25.60;1.00
19805;DHT22;10062;51.052;13.756;2022-07-06T12:06:17;26.00;1.00
19805;DHT22;10062;51.052;13.756;2022-07-06T12:08:51;26.30;1.00
19805;DHT22;10062;51.052;13.756;2022-07-06T12:11:24;26.20;1.00
19805;DHT22;10062;51.052;13.756;2022-07-06T12:13:57;26.40;1.00
19805;DHT22;10062;51.052;13.756;2022-07-06T12:16:31;26.60;1.00
19805;DHT22;10062;51.052;13.756;2022-07-06T12:19:05;27.10;1.00
19805;DHT22;10062;51.052;13.756;2022-07-06T12:21:44;27.30;1.00
19805;DHT22;10062;51.052;13.756;2022-07-06T12:24:20;27.70;1.00
19805;DHT22;10062;51.052;13.756;2022-07-06T12:26:53;27.90;1.00
19805;DHT22;10062;51.052;13.756;2022-07-06T12:29:25;28.10;1.00
19805;DHT22;10062;51.052;13.756;2022-07-06T12:31:56;28.00;1.00
19805;DHT22;10062;51.052;13.756;2022-07-06T12:34:29;27.90;1.00
19805;DHT22;10062;51.052;13.756;2022-07-06T12:37:08;28.10;1.00
19805;DHT22;10062;51.052;13.756;2022-07-06T12:39:44;28.00;1.00
19805;DHT22;10062;51.052;13.756;2022-07-06T12:42:17;27.70;1.00
19805;DHT22;10062;51.052;13.756;2022-07-06T12:44:51;27.80;1.00
19805;DHT22;10062;51.052;13.756;2022-07-06T12:47:24;27.10;1.00
19805;DHT22;10062;51.052;13.756;2022-07-06T12:50:06;27.10;1.00
19805;DHT22;10062;51.052;13.756;2022-07-06T12:52:39;27.40;1.00
19805;DHT22;10062;51.052;13.756;2022-07-06T12:55:11;27.70;1.00
19805;DHT22;10062;51.052;13.756;2022-07-06T12:57:46;27.70;1.00
19805;DHT22;10062;51.052;13.756;2022-07-06T13:00:18;28.10;1.00
19805;DHT22;10062;51.052;13.756;2022-07-06T13:02:53;28.50;1.00
19805;DHT22;10062;51.052;13.756;2022-07-06T13:05:29;28.20;1.00
19805;DHT22;10062;51.052;13.756;2022-07-06T13:08:03;28.00;1.00
19805;DHT22;10062;51.052;13.756;2022-07-06T13:10:35;27.60;1.00
19805;DHT22;10062;51.052;13.756;2022-07-06T13:13:08;27.40;1.00
19805;DHT22;10062;51.052;13.756;2022-07-06T13:15:41;27.30;1.00
19805;DHT22;10062;51.052;13.756;2022-07-06T13:18:13;27.10;1.00
19805;DHT22;10062;51.052;13.756;2022-07-06T13:20:45;26.90;1.00
19805;DHT22;10062;51.052;13.756;2022-07-06T13:23:18;27.00;1.00
19805;DHT22;10062;51.052;13.756;2022-07-06T13:25:49;27.20;1.00
19805;DHT22;10062;51.052;13.756;2022-07-06T13:28:21;27.30;1.00
19805;DHT22;10062;51.052;13.756;2022-07-06T13:30:53;27.70;1.00
19805;DHT22;10062;51.052;13.756;2022-07-06T13:33:25;27.70;1.00
19805;DHT22;10062;51.052;13.756;2022-07-06T13:35:56;27.90;1.00
19805;DHT22;10062;51.052;13.756;2022-07-06T13:38:29;28.30;1.00
19805;DHT22;10062;51.052;13.756;2022-07-06T13:41:01;28.30;1.00
19805;DHT22;10062;51.052;13.756;2022-07-06T13:43:33;28.60;1.00
19805;DHT22;10062;51.052;13.756;2022-07-06T13:46:08;28.80;1.00
19805;DHT22;10062;51.052;13.756;2022-07-06T13:48:41;28.80;1.00
19805;DHT22;10062;51.052;13.756;2022-07-06T13:51:12;28.90;1.00
19805;DHT22;10062;51.052;13.756;2022-07-06T13:53:46;28.30;1.00
19805;DHT22;10062;51.052;13.756;2022-07-06T13:56:17;28.10;1.00
19805;DHT22;10062;51.052;13.756;2022-07-06T13:58:49;27.90;1.00
19805;DHT22;10062;51.052;13.756;2022-07-06T14:01:21;27.50;1.00
19805;DHT22;10062;51.052;13.756;2022-07-06T14:03:53;27.20;1.00
19805;DHT22;10062;51.052;13.756;2022-07-06T14:06:25;27.40;1.00
19805;DHT22;10062;51.052;13.756;2022-07-06T14:08:58;27.90;1.00
19805;DHT22;10062;51.052;13.756;2022-07-06T14:11:30;28.20;1.00
19805;DHT22;10062;51.052;13.756;2022-07-06T14:14:02;27.30;1.00
19805;DHT22;10062;51.052;13.756;2022-07-06T14:16:34;26.90;1.00
19805;DHT22;10062;51.052;13.756;2022-07-06T14:19:05;26.90;1.00
19805;DHT22;10062;51.052;13.756;2022-07-06T14:21:37;27.00;1.00
19805;DHT22;10062;51.052;13.756;2022-07-06T14:24:10;26.60;1.00
19805;DHT22;10062;51.052;13.756;2022-07-06T14:26:42;26.50;1.00
19805;DHT22;10062;51.052;13.756;2022-07-06T14:29:13;26.50;1.00
19805;DHT22;10062;51.052;13.756;2022-07-06T14:31:45;26.70;1.00
19805;DHT22;10062;51.052;13.756;2022-07-06T14:34:18;26.90;1.00
19805;DHT22;10062;51.052;13.756;2022-07-06T14:36:49;27.20;1.00
19805;DHT22;10062;51.052;13.756;2022-07-06T14:39:22;27.20;1.00
19805;DHT22;10062;51.052;13.756;2022-07-06T14:41:54;27.70;1.00
19805;DHT22;10062;51.052;13.756;2022-07-06T14:44:26;27.90;1.00
19805;DHT22;10062;51.052;13.756;2022-07-06T14:46:57;27.60;1.00
19805;DHT22;10062;51.052;13.756;2022-07-06T14:49:29;27.80;1.00
19805;DHT22;10062;51.052;13.756;2022-07-06T14:52:01;27.70;1.00
19805;DHT22;10062;51.052;13.756;2022-07-06T14:54:34;28.00;1.00
19805;DHT22;10062;51.052;13.756;2022-07-06T14:57:06;27.90;1.00
19805;DHT22;10062;51.052;13.756;2022-07-06T14:59:39;27.60;1.00
19805;DHT22;10062;51.052;13.756;2022-07-06T15:02:10;27.50;1.00
19805;DHT22;10062;51.052;13.756;2022-07-06T15:04:42;27.40;1.00
19805;DHT22;10062;51.052;13.756;2022-07-06T15:07:14;27.50;1.00
19805;DHT22;10062;51.052;13.756;2022-07-06T15:09:47;27.80;1.00
19805;DHT22;10062;51.052;13.756;2022-07-06T15:12:18;27.70;1.00
19805;DHT22;10062;51.052;13.756;2022-07-06T15:14:50;27.80;1.00
19805;DHT22;10062;51.052;13.756;2022-07-06T15:17:22;27.30;1.00
19805;DHT22;10062;51.052;13.756;2022-07-06T15:19:53;27.40;1.00
19805;DHT22;10062;51.052;13.756;2022-07-06T15:22:25;27.10;1.00
19805;DHT22;10062;51.052;13.756;2022-07-06T15:24:58;27.10;1.00
19805;DHT22;10062;51.052;13.756;2022-07-06T15:27:30;27.10;1.00
19805;DHT22;10062;51.052;13.756;2022-07-06T15:30:02;27.00;1.00
19805;DHT22;10062;51.052;13.756;2022-07-06T15:32:34;26.90;1.00
19805;DHT22;10062;51.052;13.756;2022-07-06T15:35:05;26.30;1.00
19805;DHT22;10062;51.052;13.756;2022-07-06T15:37:38;25.90;1.00
19805;DHT22;10062;51.052;13.756;2022-07-06T15:40:12;25.90;1.00
19805;DHT22;10062;51.052;13.756;2022-07-06T15:42:47;26.00;1.00
19805;DHT22;10062;51.052;13.756;2022-07-06T15:45:18;26.10;1.00
19805;DHT22;10062;51.052;13.756;2022-07-06T15:47:50;26.00;1.00
19805;DHT22;10062;51.052;13.756;2022-07-06T15:50:22;25.90;1.00
19805;DHT22;10062;51.052;13.756;2022-07-06T15:52:54;25.50;1.00
19805;DHT22;10062;51.052;13.756;2022-07-06T15:55:27;25.30;1.00
19805;DHT22;10062;51.052;13.756;2022-07-06T15:57:59;25.10;1.00
19805;DHT22;10062;51.052;13.756;2022-07-06T16:00:31;24.60;1.00
19805;DHT22;10062;51.052;13.756;2022-07-06T16:03:03;24.50;1.00